Mont-Laurier, Canada
Current Conditions -  °F | °C
As of 11:00 AM on Thursday 30 Oct 2014 (Local Time) from CYND Reporting Station
Broken Clouds Broken Clouds  
Wind Chill: 40°   Ceiling: 2000
Heat Index: 45°   Visibility: 15mi
Dew Point: 32°   Wind: 9mph
Humidity: 61%   Direction: 310°NW
Pressure: 30.01"   Gusts: NA
Location:  46.55°N, 75.5°W
Report Text: CYND 301500Z 31008KT 15SM BKN020 07/00 A3001 RMK SC6 SLP164
Loading
Personal Weather Stations






























Interactive Weather Map
Tropical Storm Tracking
New forecast layout! Learn more

10-Day Weather Forecast

Advertisements
Track Severe Weather on mobile